createdAt,value
2023-03-22T00:01:48.663Z,39.65
2023-03-22T00:04:46.584Z,40.38
2023-03-22T00:07:44.393Z,41.80
2023-03-22T00:10:42.591Z,40.33
2023-03-22T00:13:40.441Z,39.65
2023-03-22T00:16:38.097Z,37.08
2023-03-22T00:19:35.823Z,38.60
2023-03-22T00:22:33.886Z,39.53
2023-03-22T00:25:32.006Z,38.80
2023-03-22T00:28:29.660Z,39.47
2023-03-22T00:31:27.434Z,40.42
2023-03-22T00:34:25.120Z,41.28
2023-03-22T00:37:22.847Z,40.05
2023-03-22T00:40:20.793Z,40.33
2023-03-22T00:43:18.829Z,42.08
2023-03-22T00:46:18.442Z,41.08
2023-03-22T00:49:16.146Z,38.28
2023-03-22T00:52:13.859Z,38.92
2023-03-22T00:55:11.608Z,39.85
2023-03-22T00:58:09.158Z,37.08
2023-03-22T01:01:07.883Z,37.42
2023-03-22T01:04:06.081Z,39.85
2023-03-22T01:07:08.167Z,37.80
2023-03-22T01:10:07.187Z,37.08
2023-03-22T01:13:05.576Z,34.70
2023-03-22T01:16:03.296Z,37.88
2023-03-22T01:19:01.812Z,37.53
2023-03-22T01:21:59.742Z,38.97
2023-03-22T01:24:57.392Z,36.05
2023-03-22T01:27:55.346Z,39.75
2023-03-22T01:30:53.090Z,39.42
2023-03-22T01:33:51.311Z,37.28
2023-03-22T01:36:50.664Z,37.55
2023-03-22T01:39:48.769Z,36.78
2023-03-22T01:42:46.582Z,38.35
2023-03-22T01:45:46.184Z,39.75
2023-03-22T01:48:47.032Z,37.75
2023-03-22T01:51:47.690Z,37.70
2023-03-22T01:54:49.407Z,36.15
2023-03-22T01:57:47.149Z,37.33
2023-03-22T02:00:47.242Z,36.42
2023-03-22T02:03:50.735Z,37.72
2023-03-22T02:06:49.008Z,35.25
2023-03-22T02:09:47.559Z,36.38
2023-03-22T02:13:02.587Z,39.15
2023-03-22T02:16:52.500Z,38.88
2023-03-22T02:20:25.030Z,38.03
2023-03-22T02:23:46.631Z,38.67
2023-03-22T02:27:07.516Z,37.80
2023-03-22T02:30:21.311Z,37.53
2023-03-22T02:33:21.963Z,42.08
2023-03-22T02:36:46.988Z,38.50
2023-03-22T02:40:06.094Z,38.72
2023-03-22T02:43:16.558Z,39.25
2023-03-22T02:46:27.066Z,37.90
2023-03-22T02:49:46.460Z,39.40
2023-03-22T02:52:54.449Z,41.20
2023-03-22T02:56:30.674Z,41.17
2023-03-22T02:59:30.313Z,39.65
2023-03-22T03:02:29.585Z,40.55
2023-03-22T03:05:30.776Z,39.13
2023-03-22T03:08:29.810Z,41.28
2023-03-22T03:11:27.499Z,40.58
2023-03-22T03:14:31.381Z,40.08
2023-03-22T03:17:54.375Z,36.85
2023-03-22T03:21:05.318Z,36.78
2023-03-22T03:24:33.010Z,36.22
2023-03-22T03:27:50.287Z,34.42
2023-03-22T03:31:00.106Z,31.42
2023-03-22T03:34:06.069Z,29.67
2023-03-22T03:37:16.383Z,29.92
2023-03-22T03:40:18.614Z,32.55
2023-03-22T03:43:17.160Z,32.30
2023-03-22T03:46:16.462Z,30.83
2023-03-22T03:49:16.933Z,32.08
2023-03-22T03:52:15.225Z,30.10
2023-03-22T03:55:13.265Z,31.92
2023-03-22T03:58:12.395Z,32.47
2023-03-22T04:01:10.526Z,30.55
2023-03-22T04:04:08.371Z,30.27
2023-03-22T04:07:07.670Z,29.27
2023-03-22T04:10:06.539Z,30.80
2023-03-22T04:13:04.262Z,30.02
2023-03-22T04:16:02.538Z,29.70
2023-03-22T04:19:00.202Z,26.80
2023-03-22T04:21:57.789Z,30.45
2023-03-22T04:24:56.392Z,31.38
2023-03-22T04:27:56.329Z,27.23
2023-03-22T04:30:54.367Z,25.52
2023-03-22T04:33:55.707Z,28.40
2023-03-22T04:36:53.626Z,29.60
2023-03-22T04:39:51.753Z,28.98
2023-03-22T04:42:49.692Z,23.85
2023-03-22T04:45:47.967Z,25.65
2023-03-22T04:48:46.008Z,26.02
2023-03-22T04:51:44.273Z,24.92
2023-03-22T04:54:42.598Z,24.67
2023-03-22T04:57:40.611Z,26.92
2023-03-22T05:00:39.153Z,23.42
2023-03-22T05:03:37.884Z,23.05
2023-03-22T05:06:36.309Z,24.27
2023-03-22T05:09:34.263Z,23.63
2023-03-22T05:12:33.249Z,25.00
2023-03-22T05:15:32.958Z,23.95
2023-03-22T05:18:33.466Z,25.67
2023-03-22T05:39:00.204Z,22.63
2023-03-22T05:41:57.846Z,22.63
2023-03-22T05:44:55.882Z,23.92
2023-03-22T05:47:53.661Z,21.25
2023-03-22T05:50:51.465Z,19.92
2023-03-22T05:53:49.901Z,23.75
2023-03-22T05:56:47.871Z,20.70
2023-03-22T05:59:45.481Z,19.77
2023-03-22T06:02:47.973Z,20.02
2023-03-22T06:05:47.036Z,21.15
2023-03-22T06:08:44.808Z,19.83
2023-03-22T06:11:42.582Z,20.90
2023-03-22T06:14:40.286Z,22.45
2023-03-22T06:17:38.299Z,20.25
2023-03-22T06:20:36.066Z,21.17
2023-03-22T06:23:33.672Z,21.70
2023-03-22T06:26:31.808Z,21.23
2023-03-22T06:29:29.598Z,23.20
2023-03-22T06:32:27.602Z,22.48
2023-03-22T06:35:25.213Z,24.38
2023-03-22T06:38:22.893Z,22.92
2023-03-22T06:41:20.734Z,23.67
2023-03-22T06:44:18.806Z,24.23
2023-03-22T06:47:16.426Z,22.98
2023-03-22T06:50:15.874Z,23.33
2023-03-22T06:53:13.501Z,23.33
2023-03-22T06:56:11.192Z,26.58
2023-03-22T06:59:08.896Z,27.73
2023-03-22T07:02:06.863Z,25.67
2023-03-22T07:05:04.758Z,25.58
2023-03-22T07:08:02.614Z,24.95
2023-03-22T07:11:00.369Z,25.10
2023-03-22T07:13:58.681Z,26.10
2023-03-22T07:16:56.941Z,27.20
2023-03-22T07:19:54.783Z,25.80
2023-03-22T08:19:29.205Z,28.17
2023-03-22T08:22:55.328Z,27.25
2023-03-22T08:25:53.561Z,27.67
2023-03-22T08:28:51.437Z,29.02
2023-03-22T08:31:49.219Z,26.13
2023-03-22T08:34:47.074Z,28.27
2023-03-22T08:37:44.808Z,26.08
2023-03-22T08:40:42.560Z,26.30
2023-03-22T08:43:41.000Z,27.35
2023-03-22T08:46:39.822Z,28.23
2023-03-22T08:49:42.698Z,27.45
2023-03-22T08:52:41.760Z,26.73
2023-03-22T08:55:40.656Z,27.63
2023-03-22T08:58:38.805Z,27.92
2023-03-22T09:01:38.133Z,26.45
2023-03-22T09:04:36.600Z,28.38
2023-03-22T09:07:34.382Z,27.08
2023-03-22T09:10:32.613Z,27.10
2023-03-22T09:13:31.718Z,26.65
2023-03-22T09:16:29.405Z,24.67
2023-03-22T09:19:27.168Z,24.80
2023-03-22T09:22:25.395Z,27.25
2023-03-22T09:25:23.493Z,26.98
2023-03-22T09:28:21.418Z,23.15
2023-03-22T09:31:20.739Z,24.67
2023-03-22T09:34:18.574Z,23.73
2023-03-22T09:37:16.361Z,23.52
2023-03-22T09:40:14.843Z,23.88
2023-03-22T09:43:16.001Z,22.70
2023-03-22T09:46:23.996Z,23.63
2023-03-22T09:49:29.591Z,21.38
2023-03-22T09:52:27.290Z,23.00
2023-03-22T09:55:40.337Z,21.95
2023-03-22T09:59:07.297Z,24.45
2023-03-22T10:02:31.997Z,24.42
2023-03-22T10:05:53.244Z,21.40
2023-03-22T10:08:53.628Z,22.27
2023-03-22T10:12:00.671Z,21.70
2023-03-22T10:15:16.570Z,23.13
2023-03-22T10:18:21.289Z,22.85
2023-03-22T10:21:20.047Z,21.65
2023-03-22T10:24:24.800Z,21.58
2023-03-22T10:27:24.945Z,23.75
2023-03-22T10:30:28.642Z,25.75
2023-03-22T10:33:39.643Z,24.75
2023-03-22T10:36:42.018Z,24.27
2023-03-22T10:39:53.265Z,22.00
2023-03-22T10:43:19.786Z,23.17
2023-03-22T10:46:21.753Z,23.63
2023-03-22T10:49:44.703Z,24.05
2023-03-22T10:52:52.189Z,24.75
2023-03-22T10:55:50.325Z,25.85
2023-03-22T10:58:55.548Z,25.30
2023-03-22T11:01:53.738Z,24.50
2023-03-22T11:04:56.264Z,23.67
2023-03-22T11:07:54.449Z,25.38
2023-03-22T11:10:59.642Z,30.42
2023-03-22T11:14:09.222Z,26.67
2023-03-22T11:17:06.861Z,23.35
2023-03-22T11:24:16.637Z,24.88
2023-03-22T11:27:31.877Z,23.50
2023-03-22T11:34:47.943Z,24.10
2023-03-22T11:37:49.015Z,25.38
2023-03-22T11:41:01.892Z,25.23
2023-03-22T11:44:04.495Z,25.05
2023-03-22T11:47:05.434Z,26.27
2023-03-22T11:50:10.867Z,24.38
2023-03-22T11:53:17.856Z,24.90
2023-03-22T12:00:31.606Z,23.23
2023-03-22T12:03:38.404Z,23.42
2023-03-22T12:06:41.745Z,23.13
2023-03-22T12:09:51.266Z,23.83
2023-03-22T12:12:58.298Z,22.38
2023-03-22T12:16:14.082Z,23.73
2023-03-22T12:19:36.720Z,24.00
2023-03-22T12:22:41.088Z,22.55
2023-03-22T12:25:42.121Z,22.98
2023-03-22T12:29:04.427Z,21.77
2023-03-22T12:32:10.953Z,23.60
2023-03-22T12:35:17.927Z,19.80
2023-03-22T12:38:31.377Z,21.60
2023-03-22T12:41:36.963Z,22.60
2023-03-22T12:44:42.326Z,21.60
2023-03-22T12:47:47.709Z,22.42
2023-03-22T12:51:03.562Z,21.80
2023-03-22T12:54:02.660Z,21.70
2023-03-22T12:57:03.126Z,20.75
2023-03-22T13:00:11.164Z,19.73
2023-03-22T13:03:25.825Z,21.85
2023-03-22T13:06:54.327Z,20.95
2023-03-22T13:09:53.457Z,22.05
2023-03-22T13:13:26.139Z,22.42
2023-03-22T13:16:42.926Z,21.42
2023-03-22T13:19:55.124Z,22.85
2023-03-22T13:23:04.911Z,23.88
2023-03-22T13:26:06.581Z,22.85
2023-03-22T13:29:22.638Z,22.95
2023-03-22T13:32:34.137Z,23.95
2023-03-22T13:35:58.109Z,22.98
2023-03-22T13:38:59.490Z,22.67
2023-03-22T13:42:23.071Z,24.33
2023-03-22T13:45:36.523Z,24.52
2023-03-22T13:48:54.669Z,31.35
2023-03-22T13:51:53.293Z,31.77
2023-03-22T13:54:53.318Z,29.83
2023-03-22T13:57:59.727Z,29.48
2023-03-22T14:00:58.844Z,31.08
2023-03-22T14:04:01.728Z,30.70
2023-03-22T14:07:20.321Z,32.63
2023-03-22T14:10:36.758Z,33.83
2023-03-22T14:13:41.686Z,34.00
2023-03-22T14:16:44.359Z,35.25
2023-03-22T14:19:42.862Z,36.13
